Time;durP1;ratioP1;P1;durP2;ratioP2;P2;SDS_P1;SDS_P2;PMS_P1;PMS_P2;Temp;Humidity;BMP_temperature;BMP_pressure;BME280_temperature;BME280_humidity;BME280_pressure;Samples;Min_cycle;Max_cycle;Signal;HPM_P1;HPM_P2
2022/10/12 00:01:23;;;;;;;2.23;2.10;;;25.50;57.50;;;;;;5035338;28;20445;-84
2022/10/12 00:03:50;;;;;;;2.40;2.30;;;25.50;57.50;;;;;;5034971;28;20948;-83
2022/10/12 00:06:20;;;;;;;2.13;2.00;;;25.50;57.60;;;;;;5035142;28;20464;-84
2022/10/12 00:08:48;;;;;;;2.27;2.13;;;25.50;57.50;;;;;;5035518;28;20758;-86
2022/10/12 00:11:16;;;;;;;2.50;2.23;;;25.50;58.00;;;;;;5035048;28;20448;-84
2022/10/12 00:13:43;;;;;;;2.53;2.33;;;25.50;57.50;;;;;;5034805;28;20476;-87
2022/10/12 00:16:13;;;;;;;1.90;1.80;;;25.50;57.50;;;;;;5034398;28;20438;-83
2022/10/12 00:18:41;;;;;;;2.07;1.97;;;25.50;57.50;;;;;;5034597;28;20449;-88
2022/10/12 00:21:10;;;;;;;2.33;2.00;;;25.50;57.50;;;;;;5035108;28;20472;-83
2022/10/12 00:23:38;;;;;;;1.70;1.60;;;25.50;57.50;;;;;;5034889;28;20445;-84
2022/10/12 00:26:07;;;;;;;2.40;2.13;;;25.50;57.50;;;;;;5034385;28;20441;-88
2022/10/12 00:28:34;;;;;;;1.90;1.80;;;25.50;57.50;;;;;;5034753;28;20921;-88
2022/10/12 00:31:02;;;;;;;2.23;2.03;;;25.50;57.50;;;;;;5034707;28;20454;-83
2022/10/12 00:33:28;;;;;;;2.47;2.27;;;25.50;57.50;;;;;;5034270;28;20507;-84
2022/10/12 00:35:56;;;;;;;1.80;1.70;;;25.50;57.50;;;;;;5034520;28;20445;-88
2022/10/12 00:38:24;;;;;;;1.63;1.53;;;25.50;57.50;;;;;;5034240;28;20444;-83
2022/10/12 00:40:50;;;;;;;2.20;2.00;;;25.50;57.50;;;;;;5034803;28;20442;-89
2022/10/12 00:43:26;;;;;;;1.83;1.73;;;25.50;57.50;;;;;;5034289;28;20460;-88
2022/10/12 00:45:53;;;;;;;2.20;2.10;;;25.50;57.40;;;;;;5034741;28;20925;-84
2022/10/12 00:48:20;;;;;;;2.00;1.90;;;25.40;57.50;;;;;;5034293;28;20440;-83
2022/10/12 00:50:47;;;;;;;2.27;2.07;;;25.40;57.40;;;;;;5034165;28;20444;-83
2022/10/12 00:53:17;;;;;;;1.93;1.83;;;25.40;57.40;;;;;;5034080;28;20446;-84
2022/10/12 00:55:49;;;;;;;2.50;2.40;;;25.40;57.40;;;;;;5034208;28;20804;-83
2022/10/12 00:58:16;;;;;;;2.07;1.97;;;25.40;57.30;;;;;;5034064;28;20452;-83
2022/10/12 01:00:44;;;;;;;2.10;2.00;;;25.60;57.40;;;;;;5033896;28;20448;-89
2022/10/12 01:03:15;;;;;;;1.80;1.70;;;25.40;57.30;;;;;;5034093;28;20441;-83
2022/10/12 01:05:42;;;;;;;1.80;1.70;;;25.40;57.20;;;;;;5034047;28;20445;-84
2022/10/12 01:08:09;;;;;;;2.27;2.17;;;25.50;57.40;;;;;;5034254;28;20786;-83
2022/10/12 01:10:37;;;;;;;1.63;1.53;;;25.40;57.40;;;;;;5033808;28;20446;-83
2022/10/12 01:13:04;;;;;;;1.87;1.77;;;25.40;57.40;;;;;;5033861;28;20462;-88
2022/10/12 01:15:37;;;;;;;2.17;1.97;;;25.40;57.30;;;;;;5033828;28;20449;-88
2022/10/12 01:18:10;;;;;;;2.27;2.17;;;25.40;57.30;;;;;;5033861;28;20967;-87
2022/10/12 01:21:04;;;;;;;2.30;2.20;;;25.40;57.30;;;;;;5033788;28;20452;-85
2022/10/12 01:24:06;;;;;;;2.50;1.97;;;25.40;57.20;;;;;;5033506;28;20458;-84
2022/10/12 01:27:03;;;;;;;1.80;1.70;;;25.40;57.20;;;;;;5033710;28;20449;-84
2022/10/12 01:30:12;;;;;;;1.93;1.83;;;25.40;57.20;;;;;;5033703;28;20453;-87
2022/10/12 01:33:17;;;;;;;2.20;2.00;;;25.40;57.30;;;;;;5033637;28;20445;-84
2022/10/12 01:35:53;;;;;;;1.70;1.60;;;25.40;57.20;;;;;;5029682;28;20445;-89
2022/10/12 01:38:45;;;;;;;2.20;2.00;;;25.40;57.20;;;;;;5033719;28;20737;-83
2022/10/12 01:41:18;;;;;;;2.00;1.90;;;25.40;57.20;;;;;;5024269;28;20989;-83
2022/10/12 01:43:46;;;;;;;1.80;1.70;;;25.40;57.10;;;;;;5033420;28;20515;-84
2022/10/12 01:46:39;;;;;;;2.17;1.97;;;25.40;57.80;;;;;;5033350;28;20448;-83
2022/10/12 01:49:07;;;;;;;1.73;1.63;;;25.40;57.10;;;;;;5033589;28;20447;-85
2022/10/12 01:51:46;;;;;;;2.37;2.13;;;25.30;57.20;;;;;;5033633;28;20515;-89
2022/10/12 01:54:23;;;;;;;1.67;1.57;;;25.30;57.20;;;;;;5033324;28;21054;-83
2022/10/12 01:56:57;;;;;;;2.03;1.93;;;25.30;57.10;;;;;;5033511;28;20442;-86
2022/10/12 01:59:34;;;;;;;1.73;1.63;;;25.40;57.20;;;;;;5033515;28;20439;-84
2022/10/12 02:02:11;;;;;;;2.30;2.10;;;25.30;57.10;;;;;;5033508;28;20455;-84
2022/10/12 02:04:45;;;;;;;2.20;1.97;;;25.30;57.10;;;;;;5033333;28;20452;-84
2022/10/12 02:07:18;;;;;;;2.10;1.93;;;25.30;57.00;;;;;;5033417;28;20429;-84
2022/10/12 02:09:47;;;;;;;1.90;1.80;;;25.40;57.10;;;;;;5033592;28;20449;-84
2022/10/12 02:12:19;;;;;;;1.50;1.40;;;25.30;57.00;;;;;;5033168;28;20952;-84
2022/10/12 02:14:50;;;;;;;2.20;2.00;;;25.40;57.00;;;;;;5033334;28;20583;-84
2022/10/12 02:17:20;;;;;;;1.83;1.73;;;25.30;56.90;;;;;;5033388;28;20945;-84
2022/10/12 02:19:50;;;;;;;1.97;1.87;;;25.40;57.00;;;;;;5033167;28;20966;-84
2022/10/12 02:22:19;;;;;;;1.70;1.60;;;25.30;57.00;;;;;;5032918;28;20450;-84
2022/10/12 02:24:49;;;;;;;2.20;2.10;;;25.30;57.00;;;;;;5033300;28;20443;-84
2022/10/12 02:27:18;;;;;;;1.60;1.50;;;25.30;57.00;;;;;;5033047;28;20445;-84
2022/10/12 02:29:47;;;;;;;2.03;1.93;;;25.30;57.00;;;;;;5033292;28;20926;-84
2022/10/12 02:32:20;;;;;;;1.67;1.57;;;25.30;57.00;;;;;;5033317;28;20789;-84
2022/10/12 02:34:52;;;;;;;1.60;1.50;;;25.30;57.00;;;;;;5033300;28;20500;-85
2022/10/12 02:37:30;;;;;;;2.33;2.23;;;25.30;56.90;;;;;;5032957;28;20471;-84
2022/10/12 02:40:03;;;;;;;1.57;1.47;;;25.30;56.90;;;;;;5033960;28;20484;-89
2022/10/12 02:42:33;;;;;;;2.10;2.00;;;25.30;56.90;;;;;;5036692;28;20446;-84
2022/10/12 02:45:03;;;;;;;1.53;1.43;;;25.40;56.90;;;;;;5037068;28;20460;-85
2022/10/12 02:47:32;;;;;;;1.73;1.63;;;25.20;56.90;;;;;;5036587;28;20912;-85
2022/10/12 02:50:00;;;;;;;1.60;1.50;;;25.30;56.90;;;;;;5036155;28;20451;-85
2022/10/12 02:52:30;;;;;;;1.70;1.60;;;25.30;56.90;;;;;;5036549;28;20456;-84
2022/10/12 02:54:57;;;;;;;1.80;1.70;;;25.20;56.80;;;;;;5036436;28;20850;-89
2022/10/12 02:57:24;;;;;;;1.80;1.70;;;25.20;56.80;;;;;;5036590;28;20921;-84
2022/10/12 02:59:51;;;;;;;1.80;1.70;;;25.20;56.80;;;;;;5036541;28;20808;-84
2022/10/12 03:02:18;;;;;;;2.60;2.40;;;25.20;56.80;;;;;;5036136;28;20451;-84
2022/10/12 03:04:44;;;;;;;1.70;1.60;;;25.20;56.80;;;;;;5036132;28;20891;-84
2022/10/12 03:07:11;;;;;;;1.70;1.60;;;25.40;56.90;;;;;;5036693;28;20441;-84
2022/10/12 03:09:39;;;;;;;2.13;2.03;;;25.20;57.10;;;;;;5036110;28;20449;-84
2022/10/12 03:12:06;;;;;;;2.30;2.13;;;25.40;57.20;;;;;;5036200;28;20441;-85
2022/10/12 03:14:34;;;;;;;2.00;1.90;;;25.20;56.80;;;;;;5035917;28;20485;-89
2022/10/12 03:17:00;;;;;;;2.13;1.93;;;25.40;56.80;;;;;;5036145;28;20544;-84
2022/10/12 03:19:27;;;;;;;1.83;1.73;;;25.30;56.80;;;;;;5036065;28;20447;-84
2022/10/12 03:21:54;;;;;;;1.90;1.80;;;25.20;56.70;;;;;;5035987;28;20797;-88
2022/10/12 03:24:21;;;;;;;2.67;2.47;;;25.20;56.80;;;;;;5036198;28;20451;-84
2022/10/12 03:26:49;;;;;;;1.70;1.57;;;25.20;56.70;;;;;;5035761;28;20933;-87
2022/10/12 03:29:16;;;;;;;1.60;1.50;;;25.20;56.60;;;;;;5036020;28;20438;-88
2022/10/12 03:31:42;;;;;;;1.73;1.63;;;25.20;56.70;;;;;;5035639;28;20453;-84
2022/10/12 03:34:10;;;;;;;1.80;1.70;;;25.20;56.70;;;;;;5035643;28;20829;-85
2022/10/12 03:36:37;;;;;;;2.33;1.70;;;25.20;56.60;;;;;;5035912;28;20445;-84
2022/10/12 03:39:04;;;;;;;1.80;1.70;;;25.20;56.70;;;;;;5035445;28;20472;-88
2022/10/12 03:41:30;;;;;;;1.93;1.70;;;25.20;56.60;;;;;;5035540;28;20449;-84
2022/10/12 03:43:59;;;;;;;2.23;2.13;;;25.20;56.70;;;;;;5035493;28;20468;-89
2022/10/12 03:46:25;;;;;;;1.60;1.50;;;25.20;56.70;;;;;;5035161;28;20448;-84
2022/10/12 03:48:52;;;;;;;2.00;1.90;;;25.20;56.70;;;;;;5035544;28;20441;-84
2022/10/12 03:51:19;;;;;;;1.87;1.77;;;25.10;56.60;;;;;;5034162;28;20442;-89
2022/10/12 03:53:46;;;;;;;1.97;1.87;;;25.20;56.60;;;;;;5035335;28;20446;-87
2022/10/12 03:56:13;;;;;;;1.80;1.70;;;25.10;56.50;;;;;;5035349;28;20481;-84
2022/10/12 03:58:39;;;;;;;2.17;2.00;;;25.20;56.60;;;;;;5035608;28;20436;-86
2022/10/12 04:01:07;;;;;;;1.67;1.57;;;25.10;56.60;;;;;;5035395;28;20444;-89
2022/10/12 04:03:35;;;;;;;1.60;1.50;;;25.10;56.50;;;;;;5035204;28;20441;-85
2022/10/12 04:06:02;;;;;;;1.83;1.73;;;25.10;56.60;;;;;;5035220;28;20453;-89
2022/10/12 04:08:29;;;;;;;1.80;1.70;;;25.10;56.60;;;;;;5034987;28;20452;-84
2022/10/12 04:10:57;;;;;;;1.70;1.60;;;25.10;56.50;;;;;;5034748;28;20451;-90
2022/10/12 04:13:24;;;;;;;1.50;1.40;;;25.10;56.50;;;;;;5034931;28;20504;-89
2022/10/12 04:15:51;;;;;;;1.53;1.43;;;25.10;56.50;;;;;;5034876;28;20486;-84
2022/10/12 04:18:19;;;;;;;1.90;1.80;;;25.10;56.50;;;;;;5034880;28;20446;-88
2022/10/12 04:20:48;;;;;;;1.87;1.77;;;25.10;56.50;;;;;;5034904;28;20448;-84
2022/10/12 04:23:16;;;;;;;1.63;1.53;;;25.10;56.50;;;;;;5034863;28;20479;-84
2022/10/12 04:25:43;;;;;;;1.50;1.40;;;25.10;56.50;;;;;;5034916;28;20803;-84
2022/10/12 04:28:10;;;;;;;1.90;1.80;;;25.00;56.40;;;;;;5034892;28;20451;-84
2022/10/12 04:30:36;;;;;;;1.60;1.50;;;25.10;56.50;;;;;;5034643;28;20439;-89
2022/10/12 04:33:03;;;;;;;1.50;1.40;;;25.20;56.60;;;;;;5034473;28;20452;-87
2022/10/12 04:35:32;;;;;;;2.13;2.03;;;25.10;56.40;;;;;;5034664;28;20493;-88
2022/10/12 04:37:58;;;;;;;1.90;1.80;;;25.10;56.50;;;;;;5034732;28;20447;-84
2022/10/12 04:40:25;;;;;;;2.00;1.90;;;25.00;56.50;;;;;;5034248;28;20481;-84
2022/10/12 04:42:52;;;;;;;1.67;1.57;;;25.00;56.50;;;;;;5034391;28;20471;-84
2022/10/12 04:45:19;;;;;;;1.87;1.77;;;25.00;56.50;;;;;;5034355;28;20451;-84
2022/10/12 04:47:46;;;;;;;1.60;1.50;;;25.10;56.40;;;;;;5034279;28;20451;-84
2022/10/12 04:50:12;;;;;;;1.80;1.70;;;25.00;56.40;;;;;;5035069;28;20803;-84
2022/10/12 04:52:41;;;;;;;2.03;1.93;;;25.00;56.40;;;;;;5034491;28;20536;-89
2022/10/12 04:55:08;;;;;;;1.40;1.30;;;25.00;56.50;;;;;;5034393;28;20484;-87
2022/10/12 04:57:35;;;;;;;1.50;1.40;;;25.00;56.50;;;;;;5034153;28;20507;-84
2022/10/12 05:00:02;;;;;;;1.90;1.80;;;25.00;56.50;;;;;;5034203;28;20444;-87
2022/10/12 05:02:29;;;;;;;1.53;1.43;;;25.00;56.50;;;;;;5033959;28;20454;-89
2022/10/12 05:04:55;;;;;;;1.80;1.70;;;25.00;56.50;;;;;;5033873;28;20444;-89
2022/10/12 05:07:22;;;;;;;1.83;1.73;;;25.00;56.50;;;;;;5034158;28;20442;-84
2022/10/12 05:09:50;;;;;;;1.60;1.50;;;25.00;56.50;;;;;;5033638;28;20939;-89
2022/10/12 05:12:17;;;;;;;1.87;1.67;;;25.00;56.50;;;;;;5033999;28;20476;-84
2022/10/12 05:14:44;;;;;;;1.70;1.60;;;25.00;56.50;;;;;;5033926;28;20490;-86
2022/10/12 05:17:11;;;;;;;1.40;1.30;;;25.00;56.60;;;;;;5033750;28;20478;-84
2022/10/12 05:19:38;;;;;;;1.53;1.43;;;25.00;56.50;;;;;;5033754;28;20447;-84
2022/10/12 05:22:05;;;;;;;1.77;1.67;;;25.00;56.40;;;;;;5033892;28;20437;-90
2022/10/12 05:24:31;;;;;;;1.90;1.80;;;25.00;56.50;;;;;;5034031;28;20437;-89
2022/10/12 05:26:59;;;;;;;2.00;1.90;;;25.00;56.40;;;;;;5033804;28;20444;-89
2022/10/12 05:29:26;;;;;;;1.40;1.27;;;25.00;56.40;;;;;;5033466;28;20444;-88
2022/10/12 05:31:53;;;;;;;2.00;1.90;;;25.00;56.50;;;;;;5033610;28;20454;-88
2022/10/12 05:34:20;;;;;;;1.70;1.60;;;25.00;56.50;;;;;;5033521;28;20446;-85
2022/10/12 05:36:47;;;;;;;2.00;1.80;;;25.00;56.50;;;;;;5033646;28;20493;-84
2022/10/12 05:39:14;;;;;;;1.43;1.33;;;25.00;56.60;;;;;;5033376;28;20477;-84
2022/10/12 05:41:40;;;;;;;1.53;1.43;;;25.00;56.50;;;;;;5033436;28;20448;-84
2022/10/12 05:44:08;;;;;;;1.80;1.70;;;25.00;56.40;;;;;;5033487;28;20465;-90
2022/10/12 05:46:35;;;;;;;1.90;1.80;;;25.00;56.50;;;;;;5033673;28;20447;-87
2022/10/12 05:49:02;;;;;;;2.10;2.00;;;24.90;56.40;;;;;;5033338;28;20458;-84
2022/10/12 05:51:29;;;;;;;2.17;2.07;;;24.90;56.40;;;;;;5033376;28;20854;-88
2022/10/12 05:53:56;;;;;;;1.50;1.40;;;24.90;56.40;;;;;;5033205;28;20449;-89
2022/10/12 05:56:22;;;;;;;1.90;1.80;;;24.90;56.40;;;;;;5033097;28;20567;-84
2022/10/12 05:58:49;;;;;;;1.67;1.57;;;24.90;56.50;;;;;;5033487;28;20444;-84
2022/10/12 06:01:17;;;;;;;1.50;1.40;;;24.90;56.50;;;;;;5033285;28;20453;-84
2022/10/12 06:03:44;;;;;;;1.73;1.63;;;24.90;56.40;;;;;;5033236;28;20455;-84
2022/10/12 06:06:11;;;;;;;1.87;1.77;;;24.90;56.40;;;;;;5033300;28;20448;-84
2022/10/12 06:08:37;;;;;;;1.70;1.60;;;24.90;56.50;;;;;;5033303;28;20440;-89
2022/10/12 06:11:04;;;;;;;1.63;1.53;;;24.90;56.50;;;;;;5033162;28;20523;-88
2022/10/12 06:13:31;;;;;;;1.53;1.43;;;24.90;56.40;;;;;;5033078;28;20472;-85
2022/10/12 06:15:58;;;;;;;1.60;1.50;;;24.90;56.60;;;;;;5036418;28;20487;-87
2022/10/12 06:18:26;;;;;;;1.50;1.40;;;24.90;56.50;;;;;;5036980;28;20440;-85
2022/10/12 06:20:54;;;;;;;1.70;1.60;;;24.90;56.70;;;;;;5037337;28;20523;-85
2022/10/12 06:23:22;;;;;;;2.83;1.80;;;24.90;56.60;;;;;;5037746;28;20539;-86
2022/10/12 06:25:51;;;;;;;1.70;1.60;;;24.90;56.70;;;;;;5037237;28;20464;-85
2022/10/12 06:28:20;;;;;;;1.70;1.60;;;24.90;57.00;;;;;;5037257;28;20449;-85
2022/10/12 06:30:47;;;;;;;1.80;1.70;;;24.90;57.10;;;;;;5036853;28;20936;-84
2022/10/12 06:33:13;;;;;;;1.80;1.70;;;24.80;57.30;;;;;;5036871;28;20444;-84
2022/10/12 06:35:41;;;;;;;1.77;1.67;;;24.90;57.50;;;;;;5037352;28;20840;-88
2022/10/12 06:38:08;;;;;;;1.60;1.50;;;24.80;57.30;;;;;;5036875;28;20464;-85
2022/10/12 06:40:35;;;;;;;1.73;1.63;;;25.00;57.60;;;;;;5037081;28;20446;-85
2022/10/12 06:43:02;;;;;;;2.53;1.40;;;24.90;57.60;;;;;;5036907;28;20473;-86
2022/10/12 06:45:29;;;;;;;1.60;1.50;;;24.90;57.50;;;;;;5036486;28;20959;-85
2022/10/12 06:47:56;;;;;;;1.90;1.80;;;24.90;57.70;;;;;;5036483;28;20932;-85
2022/10/12 06:50:23;;;;;;;1.80;1.70;;;24.90;57.80;;;;;;5036350;28;20953;-85
2022/10/12 06:52:51;;;;;;;1.50;1.40;;;25.00;57.80;;;;;;5036402;28;20449;-85
2022/10/12 06:55:18;;;;;;;1.60;1.50;;;24.90;57.70;;;;;;5036182;28;20480;-87
2022/10/12 06:57:45;;;;;;;1.50;1.40;;;24.90;57.80;;;;;;5036512;28;20443;-85
2022/10/12 07:00:12;;;;;;;1.70;1.57;;;24.90;57.80;;;;;;5036197;28;20453;-89
2022/10/12 07:02:40;;;;;;;1.50;1.33;;;24.90;58.00;;;;;;5036575;28;20452;-85
2022/10/12 07:05:08;;;;;;;4.00;2.20;;;24.90;57.90;;;;;;5036524;28;20444;-84
2022/10/12 07:07:36;;;;;;;1.87;1.77;;;24.90;57.70;;;;;;5036226;28;20451;-84
2022/10/12 07:10:06;;;;;;;2.43;1.73;;;24.90;57.60;;;;;;5035894;28;20940;-83
2022/10/12 07:12:34;;;;;;;1.80;1.70;;;24.90;57.60;;;;;;5036018;28;20464;-87
2022/10/12 07:15:02;;;;;;;1.93;1.83;;;24.90;57.70;;;;;;5016217;28;20459;-86
2022/10/12 07:17:29;;;;;;;2.23;2.13;;;24.90;57.90;;;;;;5016309;28;20862;-87
2022/10/12 07:19:56;;;;;;;2.23;2.03;;;25.00;57.80;;;;;;5016110;28;20966;-88
2022/10/12 07:22:23;;;;;;;1.67;1.57;;;24.90;57.60;;;;;;5016479;28;20451;-93
2022/10/12 07:24:49;;;;;;;2.40;2.20;;;25.00;57.80;;;;;;5016069;28;20474;-85
2022/10/12 07:27:17;;;;;;;2.20;2.10;;;25.00;57.50;;;;;;5015189;28;20474;-82
2022/10/12 07:29:44;;;;;;;2.00;1.90;;;24.90;57.80;;;;;;5015691;28;20449;-87
2022/10/12 07:32:11;;;;;;;2.10;1.90;;;24.90;57.80;;;;;;5015478;28;20445;-83
2022/10/12 07:34:38;;;;;;;2.80;1.70;;;24.90;57.70;;;;;;5015704;28;20447;-88
2022/10/12 07:37:04;;;;;;;1.93;1.83;;;25.00;57.50;;;;;;5015693;28;20496;-83
2022/10/12 07:39:31;;;;;;;2.13;1.93;;;24.90;57.30;;;;;;5023164;28;20477;-94
2022/10/12 07:41:58;;;;;;;2.03;1.87;;;25.00;57.30;;;;;;5034523;28;20444;-82
2022/10/12 07:44:27;;;;;;;1.80;1.70;;;25.00;57.10;;;;;;5035106;28;20967;-84
2022/10/12 07:46:53;;;;;;;2.00;1.90;;;25.00;56.90;;;;;;5034842;28;20491;-92
2022/10/12 07:49:20;;;;;;;2.00;1.90;;;25.00;56.90;;;;;;5034864;28;20444;-84
2022/10/12 07:51:47;;;;;;;2.23;2.13;;;25.00;57.00;;;;;;5034702;28;20453;-83
2022/10/12 07:54:14;;;;;;;1.80;1.70;;;25.00;57.00;;;;;;5035351;28;20531;-83
2022/10/12 07:56:42;;;;;;;2.30;2.13;;;25.00;57.00;;;;;;5035148;28;20982;-83
2022/10/12 07:59:08;;;;;;;1.93;1.80;;;25.10;57.00;;;;;;5034665;28;20780;-83
2022/10/12 08:01:37;;;;;;;2.10;1.90;;;25.10;57.00;;;;;;5035425;28;20444;-83
2022/10/12 08:04:04;;;;;;;2.50;2.30;;;25.10;57.10;;;;;;5034982;28;20450;-83
2022/10/12 08:06:32;;;;;;;3.40;2.17;;;25.20;57.20;;;;;;5035128;28;20788;-83
2022/10/12 08:09:01;;;;;;;3.27;1.90;;;25.20;57.30;;;;;;5034820;28;20445;-83
2022/10/12 08:11:29;;;;;;;2.80;1.80;;;25.20;57.30;;;;;;5039127;28;20449;-83
2022/10/12 08:13:56;;;;;;;1.90;1.80;;;25.20;57.30;;;;;;5053378;28;20441;-83
2022/10/12 08:16:24;;;;;;;3.20;1.67;;;25.30;57.40;;;;;;5053968;28;21012;-83
2022/10/12 08:18:52;;;;;;;3.70;2.00;;;25.40;57.50;;;;;;5052695;28;20586;-83
2022/10/12 08:21:19;;;;;;;2.57;2.20;;;25.30;57.10;;;;;;5014130;28;20441;-83
2022/10/12 08:23:46;;;;;;;3.73;2.70;;;25.40;57.10;;;;;;5013722;28;20819;-83
2022/10/12 08:26:14;;;;;;;2.47;2.03;;;25.50;56.80;;;;;;5014530;28;20446;-83
2022/10/12 08:28:41;;;;;;;4.77;3.13;;;25.70;56.80;;;;;;5015060;28;20443;-84
2022/10/12 08:31:10;;;;;;;2.70;2.50;;;25.80;56.60;;;;;;5014614;28;20449;-84
2022/10/12 08:33:37;;;;;;;3.10;2.80;;;25.90;56.50;;;;;;5031656;28;20817;-84
2022/10/12 08:36:06;;;;;;;4.67;3.10;;;25.90;56.30;;;;;;5034561;28;20481;-84
2022/10/12 08:38:33;;;;;;;2.73;2.40;;;26.00;56.20;;;;;;5033600;28;21003;-84
2022/10/12 08:41:10;;;;;;;2.47;2.27;;;26.20;56.20;;;;;;5034585;28;20440;-84
2022/10/12 08:43:47;;;;;;;3.03;2.67;;;26.20;56.20;;;;;;5027153;28;20469;-91
2022/10/12 08:46:19;;;;;;;2.40;2.20;;;26.30;55.70;;;;;;5034303;28;20446;-86
2022/10/12 08:48:50;;;;;;;3.43;2.47;;;26.30;55.40;;;;;;5034179;28;20441;-86
2022/10/12 08:51:22;;;;;;;3.00;2.80;;;26.40;55.30;;;;;;5034177;28;20438;-86
2022/10/12 08:53:54;;;;;;;2.23;2.03;;;26.50;55.20;;;;;;5034539;28;20438;-83
2022/10/12 08:56:21;;;;;;;4.50;2.23;;;26.50;55.40;;;;;;5032808;28;20474;-83
2022/10/12 08:58:50;;;;;;;2.17;1.97;;;26.60;55.60;;;;;;5033381;28;20802;-82
2022/10/12 09:01:25;;;;;;;3.67;2.20;;;26.70;55.60;;;;;;5033631;28;20439;-82
2022/10/12 09:04:04;;;;;;;2.13;1.93;;;26.80;55.60;;;;;;5032999;28;20450;-84
2022/10/12 09:06:39;;;;;;;3.50;2.63;;;26.90;55.50;;;;;;5034173;28;20438;-84
2022/10/12 09:09:30;;;;;;;2.20;2.00;;;26.90;55.50;;;;;;5033498;28;20462;-84
2022/10/12 09:12:08;;;;;;;2.27;2.17;;;26.90;55.60;;;;;;5033235;28;20454;-84
2022/10/12 09:14:38;;;;;;;2.37;1.93;;;27.00;55.60;;;;;;5032987;28;20450;-84
2022/10/12 09:17:22;;;;;;;3.20;2.37;;;27.00;55.60;;;;;;5031893;28;20981;-83
2022/10/12 09:19:56;;;;;;;2.30;1.90;;;27.00;55.80;;;;;;5032349;28;20954;-83
2022/10/12 09:22:25;;;;;;;2.17;2.00;;;27.00;55.90;;;;;;5032381;28;21000;-83
2022/10/12 09:24:52;;;;;;;2.60;2.27;;;27.10;55.90;;;;;;5032694;28;20449;-83
2022/10/12 09:27:21;;;;;;;2.37;2.17;;;27.20;55.80;;;;;;5032926;28;20453;-85
2022/10/12 09:29:50;;;;;;;2.20;2.00;;;27.30;55.70;;;;;;5032092;28;20480;-83
2022/10/12 09:32:45;;;;;;;2.17;1.90;;;27.40;55.40;;;;;;5033758;28;20440;-82
2022/10/12 09:35:13;;;;;;;2.83;1.70;;;27.60;55.30;;;;;;5023240;28;20960;-83
2022/10/12 09:37:41;;;;;;;1.80;1.70;;;27.70;55.10;;;;;;5033235;28;20490;-83
2022/10/12 09:40:19;;;;;;;2.27;1.57;;;27.70;55.00;;;;;;5033483;28;20502;-84
2022/10/12 09:42:47;;;;;;;1.90;1.80;;;27.70;55.20;;;;;;5033503;28;20805;-83
2022/10/12 09:45:18;;;;;;;2.50;2.30;;;27.60;55.30;;;;;;5033464;28;20945;-83
2022/10/12 09:48:14;;;;;;;1.53;1.40;;;27.70;55.40;;;;;;5033306;28;20520;-84
2022/10/12 09:50:44;;;;;;;3.37;2.03;;;27.70;55.30;;;;;;5032618;28;20446;-82
2022/10/12 09:53:21;;;;;;;2.17;1.97;;;27.60;55.40;;;;;;5033244;28;20857;-82
2022/10/12 09:55:57;;;;;;;1.90;1.80;;;27.70;56.10;;;;;;5032883;28;20965;-85
2022/10/12 09:58:26;;;;;;;1.87;1.77;;;27.60;55.60;;;;;;5033462;28;20442;-83
2022/10/12 10:01:17;;;;;;;1.80;1.70;;;27.60;55.70;;;;;;5033364;28;20456;-84
2022/10/12 10:03:45;;;;;;;3.50;1.87;;;27.60;55.80;;;;;;5033494;28;20812;-83
2022/10/12 10:06:14;;;;;;;2.33;2.13;;;27.50;55.90;;;;;;5033268;28;20819;-85
2022/10/12 10:08:43;;;;;;;2.27;2.07;;;27.50;56.00;;;;;;5033185;28;21062;-85
2022/10/12 10:11:21;;;;;;;2.10;1.90;;;27.40;56.10;;;;;;5033183;28;20444;-84
2022/10/12 10:13:52;;;;;;;2.20;1.97;;;27.40;56.20;;;;;;5033285;28;20442;-84
2022/10/12 10:16:21;;;;;;;1.73;1.60;;;27.30;56.20;;;;;;5033619;28;20807;-84
2022/10/12 10:18:49;;;;;;;1.80;1.70;;;27.30;56.40;;;;;;5032848;28;20449;-84
2022/10/12 10:21:25;;;;;;;1.93;1.80;;;27.30;56.50;;;;;;5032785;28;20467;-85
2022/10/12 10:23:56;;;;;;;1.70;1.60;;;27.30;56.60;;;;;;5032248;28;20785;-83
2022/10/12 10:26:24;;;;;;;1.67;1.57;;;27.20;56.60;;;;;;5032428;28;20465;-84
2022/10/12 10:28:56;;;;;;;1.97;1.87;;;27.20;56.70;;;;;;5032631;28;20808;-83
2022/10/12 10:31:26;;;;;;;1.77;1.67;;;27.20;56.80;;;;;;5033113;28;20474;-86
2022/10/12 10:34:21;;;;;;;1.53;1.43;;;27.20;56.90;;;;;;5032665;28;20541;-92
2022/10/12 10:36:50;;;;;;;5.20;2.27;;;27.20;56.70;;;;;;5019509;28;20558;-84
2022/10/12 10:39:24;;;;;;;2.60;1.80;;;27.00;56.30;;;;;;5031045;28;20824;-83
2022/10/12 10:41:52;;;;;;;2.50;1.90;;;27.00;56.60;;;;;;5032636;28;20443;-83
2022/10/12 10:44:30;;;;;;;5.00;1.80;;;27.00;56.60;;;;;;5032425;28;20535;-84
2022/10/12 10:47:00;;;;;;;2.00;1.80;;;27.00;56.70;;;;;;5032589;28;20915;-83
2022/10/12 10:49:35;;;;;;;1.83;1.73;;;27.00;56.70;;;;;;5032463;28;20875;-83
2022/10/12 10:52:03;;;;;;;1.60;1.50;;;27.00;56.90;;;;;;5030457;28;20453;-85
2022/10/12 10:54:33;;;;;;;2.20;2.00;;;27.00;57.00;;;;;;5030275;28;20436;-83
2022/10/12 10:57:05;;;;;;;2.10;1.70;;;27.00;57.00;;;;;;5030351;28;20576;-84
2022/10/12 10:59:54;;;;;;;2.00;1.60;;;27.00;57.00;;;;;;5030703;28;20931;-83
2022/10/12 11:02:29;;;;;;;1.40;1.30;;;27.10;57.10;;;;;;5028378;28;20447;-83
2022/10/12 11:05:03;;;;;;;1.90;1.47;;;27.10;57.20;;;;;;5034335;28;20448;-83
2022/10/12 11:07:37;;;;;;;1.70;1.60;;;27.10;57.20;;;;;;5035375;28;20450;-83
2022/10/12 11:10:14;;;;;;;1.57;1.43;;;27.10;57.30;;;;;;5037237;28;20450;-89
2022/10/12 11:12:44;;;;;;;1.77;1.67;;;27.00;56.20;;;;;;5035974;28;20453;-86
2022/10/12 11:15:18;;;;;;;1.90;1.80;;;27.00;56.70;;;;;;5036125;28;20436;-86
2022/10/12 11:17:48;;;;;;;3.60;2.03;;;27.00;57.10;;;;;;5035550;28;20479;-83
2022/10/12 11:20:30;;;;;;;1.70;1.60;;;27.10;57.30;;;;;;5035935;28;20446;-84
2022/10/12 11:23:01;;;;;;;2.77;1.70;;;27.10;57.30;;;;;;5036545;28;20505;-84
2022/10/12 11:25:37;;;;;;;2.57;1.70;;;27.10;57.50;;;;;;5036457;28;20501;-83
2022/10/12 11:28:07;;;;;;;1.90;1.80;;;27.10;57.50;;;;;;5036534;28;20445;-85
2022/10/12 11:30:40;;;;;;;1.80;1.57;;;27.20;57.70;;;;;;5035898;28;20456;-83
2022/10/12 11:33:12;;;;;;;1.80;1.50;;;27.20;57.80;;;;;;5035836;28;20440;-83
2022/10/12 11:35:42;;;;;;;1.70;1.60;;;27.20;57.90;;;;;;5035947;28;20444;-83
2022/10/12 11:38:16;;;;;;;1.50;1.40;;;27.20;57.90;;;;;;5035524;28;20978;-83
2022/10/12 11:40:50;;;;;;;1.33;1.23;;;27.20;58.60;;;;;;5036752;28;20449;-85
2022/10/12 11:43:21;;;;;;;1.50;1.40;;;27.20;58.00;;;;;;5036569;28;20447;-84
2022/10/12 11:45:52;;;;;;;1.80;1.70;;;27.20;58.10;;;;;;5035671;28;20444;-82
2022/10/12 11:48:24;;;;;;;1.70;1.40;;;27.20;58.20;;;;;;5037238;28;20503;-85
2022/10/12 11:50:51;;;;;;;1.40;1.30;;;27.20;58.20;;;;;;5036479;28;20470;-85
2022/10/12 11:53:25;;;;;;;5.37;1.37;;;27.20;58.30;;;;;;5036174;28;20455;-85
2022/10/12 11:56:04;;;;;;;2.57;1.30;;;27.20;58.30;;;;;;5035998;28;20439;-83
2022/10/12 11:58:35;;;;;;;1.37;1.27;;;27.20;58.40;;;;;;5035381;28;20479;-86
2022/10/12 12:01:28;;;;;;;2.13;1.40;;;27.20;58.50;;;;;;5035579;28;20443;-87
2022/10/12 12:04:13;;;;;;;1.93;1.20;;;27.20;58.50;;;;;;5032944;28;20557;-83
2022/10/12 12:06:49;;;;;;;1.90;1.63;;;27.20;58.60;;;;;;5034951;28;20502;-86
2022/10/12 12:09:29;;;;;;;1.40;1.10;;;27.20;58.60;;;;;;5035316;28;20469;-85
2022/10/12 12:12:26;;;;;;;1.73;1.63;;;27.10;58.60;;;;;;5033379;28;20474;-84
2022/10/12 12:15:06;;;;;;;1.63;1.43;;;27.10;58.70;;;;;;5032989;28;20447;-84
2022/10/12 12:17:34;;;;;;;1.47;1.37;;;27.10;58.70;;;;;;5033759;28;20851;-83
2022/10/12 12:20:02;;;;;;;2.50;1.40;;;27.10;58.70;;;;;;5033605;28;20438;-86
2022/10/12 12:22:49;;;;;;;2.50;1.57;;;27.10;58.70;;;;;;5033169;28;20444;-87
2022/10/12 12:25:18;;;;;;;1.90;1.80;;;27.10;58.70;;;;;;5035157;28;20461;-83
2022/10/12 12:27:49;;;;;;;4.17;1.80;;;27.00;58.60;;;;;;5033871;28;20444;-84
2022/10/12 12:30:31;;;;;;;2.70;1.40;;;27.00;58.60;;;;;;5033417;28;20438;-85
2022/10/12 12:32:59;;;;;;;4.70;1.60;;;27.10;58.60;;;;;;5033323;28;20454;-86
2022/10/12 12:35:30;;;;;;;4.83;1.90;;;27.00;58.60;;;;;;5033660;28;20948;-83
2022/10/12 12:38:04;;;;;;;4.60;1.93;;;27.00;58.60;;;;;;5033798;28;20584;-83
2022/10/12 12:40:32;;;;;;;4.03;1.70;;;27.00;58.70;;;;;;5034736;28;20443;-86
2022/10/12 12:43:35;;;;;;;4.43;1.23;;;26.90;58.40;;;;;;5034046;28;20447;-83
2022/10/12 12:46:04;;;;;;;13.50;1.60;;;26.80;57.10;;;;;;5033494;28;20482;-83
2022/10/12 12:49:04;;;;;;;4.80;1.73;;;26.80;58.40;;;;;;5034295;28;20856;-86
2022/10/12 12:51:38;;;;;;;2.23;1.20;;;26.90;58.50;;;;;;5034203;28;20934;-86
2022/10/12 12:54:12;;;;;;;5.43;1.63;;;26.90;58.60;;;;;;5034302;28;20443;-84
2022/10/12 12:56:49;;;;;;;2.30;1.40;;;26.90;58.60;;;;;;5034230;28;20449;-86
2022/10/12 12:59:53;;;;;;;4.93;1.70;;;26.90;58.50;;;;;;5032540;28;20515;-83
2022/10/12 13:02:51;;;;;;;3.23;1.80;;;26.90;58.50;;;;;;5028107;28;20450;-83
2022/10/12 13:06:02;;;;;;;1.50;1.27;;;26.90;58.50;;;;;;5027236;28;20450;-83
2022/10/12 13:08:39;;;;;;;1.90;1.20;;;27.00;58.50;;;;;;5032761;28;20468;-86